createdAt,value
2018-07-07T00:00:23.219Z,101079.38
2018-07-07T00:02:51.292Z,101086.02
2018-07-07T00:05:19.346Z,101079.89
2018-07-07T00:07:47.392Z,101087.15
2018-07-07T00:10:16.195Z,101087.53
2018-07-07T00:12:44.552Z,101086.15
2018-07-07T00:15:13.654Z,101087.69
2018-07-07T00:17:42.000Z,101087.39
2018-07-07T00:20:10.071Z,101090.09
2018-07-07T00:22:38.107Z,101088.20
2018-07-07T00:25:10.360Z,101088.92
2018-07-07T00:27:38.403Z,101089.30
2018-07-07T00:30:06.479Z,101090.84
2018-07-07T00:32:34.504Z,101092.96
2018-07-07T00:35:02.576Z,101094.04
2018-07-07T00:37:30.776Z,101094.19
2018-07-07T00:39:58.996Z,101089.05
2018-07-07T00:42:28.031Z,101094.61
2018-07-07T00:44:56.540Z,101105.63
2018-07-07T00:47:24.984Z,101096.70
2018-07-07T00:49:53.191Z,101098.81
2018-07-07T00:52:21.405Z,101103.56
2018-07-07T00:54:50.470Z,101103.47
2018-07-07T00:57:19.514Z,101100.03
2018-07-07T00:59:48.436Z,101103.53
2018-07-07T01:02:18.615Z,101104.25
2018-07-07T01:04:47.313Z,101106.40
2018-07-07T01:07:15.400Z,101105.73
2018-07-07T01:09:43.556Z,101111.54
2018-07-07T01:12:11.843Z,101116.42
2018-07-07T01:14:39.937Z,101116.33
2018-07-07T01:17:07.959Z,101109.34
2018-07-07T01:19:36.018Z,101115.37
2018-07-07T01:22:05.143Z,101110.98
2018-07-07T01:24:33.260Z,101109.39
2018-07-07T01:27:01.343Z,101108.48
2018-07-07T01:29:29.716Z,101109.64
2018-07-07T01:31:57.925Z,101109.20
2018-07-07T01:34:26.157Z,101108.54
2018-07-07T01:36:54.738Z,101101.66
2018-07-07T01:39:23.039Z,101106.81
2018-07-07T01:41:51.686Z,101111.69
2018-07-07T01:44:20.279Z,101091.69
2018-07-07T01:46:49.016Z,101088.38
2018-07-07T01:49:17.876Z,101119.61
2018-07-07T01:51:46.901Z,101119.95
2018-07-07T01:54:15.560Z,101118.47
2018-07-07T01:56:43.820Z,101120.46
2018-07-07T01:59:12.021Z,101112.48
2018-07-07T02:01:40.104Z,101116.20
2018-07-07T02:04:08.279Z,101118.30
2018-07-07T02:06:36.343Z,101115.53
2018-07-07T02:09:05.384Z,101116.58
2018-07-07T02:11:33.456Z,101116.34
2018-07-07T02:14:01.497Z,101110.56
2018-07-07T02:16:29.535Z,101112.91
2018-07-07T02:18:57.578Z,101119.46
2018-07-07T02:21:25.674Z,101119.25
2018-07-07T02:23:54.098Z,101127.67
2018-07-07T02:26:22.419Z,101128.05
2018-07-07T02:28:51.056Z,101127.67
2018-07-07T02:31:20.024Z,101126.19
2018-07-07T02:33:48.531Z,101124.80
2018-07-07T02:36:17.474Z,101120.64
2018-07-07T02:38:46.775Z,101120.41
2018-07-07T02:41:15.225Z,101124.80
2018-07-07T02:43:43.533Z,101128.14
2018-07-07T02:46:11.707Z,101132.88
2018-07-07T02:48:39.988Z,101130.45
2018-07-07T02:51:08.051Z,101128.38
2018-07-07T02:53:36.123Z,101132.91
2018-07-07T02:56:04.229Z,101134.64
2018-07-07T02:58:32.276Z,101136.62
2018-07-07T03:01:00.512Z,101140.11
2018-07-07T03:03:28.839Z,101133.96
2018-07-07T03:05:57.213Z,101133.39
2018-07-07T03:08:25.698Z,101141.13
2018-07-07T03:10:54.073Z,101142.41
2018-07-07T03:13:22.551Z,101144.50
2018-07-07T03:15:51.123Z,101143.12
2018-07-07T03:18:20.021Z,101149.03
2018-07-07T03:20:48.880Z,101150.98
2018-07-07T03:23:17.789Z,101156.97
2018-07-07T03:25:46.605Z,101151.91
2018-07-07T03:28:15.057Z,101154.30
2018-07-07T03:30:43.789Z,101153.36
2018-07-07T03:33:11.863Z,101134.39
2018-07-07T03:35:40.940Z,101163.40
2018-07-07T03:38:08.984Z,101163.27
2018-07-07T03:40:37.284Z,101168.91
2018-07-07T03:43:05.497Z,101165.91
2018-07-07T03:45:33.544Z,101170.47
2018-07-07T03:48:01.651Z,101166.74
2018-07-07T03:50:29.729Z,101170.16
2018-07-07T03:52:57.872Z,101166.25
2018-07-07T03:55:25.939Z,101169.89
2018-07-07T03:57:54.021Z,101156.69
2018-07-07T04:00:22.106Z,101169.52
2018-07-07T04:02:50.155Z,101169.33
2018-07-07T04:05:18.243Z,101175.70
2018-07-07T04:07:46.604Z,101173.68
2018-07-07T04:10:14.678Z,101171.08
2018-07-07T04:12:42.765Z,101183.81
2018-07-07T04:15:10.808Z,101183.40
2018-07-07T04:17:39.044Z,101181.66
2018-07-07T04:20:07.129Z,101178.02
2018-07-07T04:22:35.135Z,101179.13
2018-07-07T04:25:03.483Z,101183.40
2018-07-07T04:27:31.524Z,101182.86
2018-07-07T04:29:59.597Z,101187.33
2018-07-07T04:32:27.770Z,101184.06
2018-07-07T04:34:55.844Z,101179.14
2018-07-07T04:37:24.197Z,101182.36
2018-07-07T04:39:52.268Z,101175.63
2018-07-07T04:42:20.329Z,101178.95
2018-07-07T04:44:48.547Z,101178.42
2018-07-07T04:47:16.599Z,101184.62
2018-07-07T04:49:44.684Z,101182.53
2018-07-07T04:52:12.736Z,101183.56
2018-07-07T04:54:40.816Z,101188.48
2018-07-07T04:57:10.321Z,101188.75
2018-07-07T04:59:38.810Z,101186.20
2018-07-07T05:02:06.860Z,101182.23
2018-07-07T05:04:35.133Z,101186.72
2018-07-07T05:07:03.254Z,101197.83
2018-07-07T05:09:31.345Z,101202.06
2018-07-07T05:11:59.413Z,101203.84
2018-07-07T05:14:27.504Z,101202.56
2018-07-07T05:16:55.601Z,101202.56
2018-07-07T05:19:23.744Z,101203.37
2018-07-07T05:21:51.885Z,101205.56
2018-07-07T05:24:19.904Z,101199.03
2018-07-07T05:26:47.985Z,101197.59
2018-07-07T05:29:16.023Z,101198.70
2018-07-07T05:31:44.077Z,101200.50
2018-07-07T05:34:12.130Z,101204.33
2018-07-07T05:36:40.208Z,101202.59
2018-07-07T05:39:08.243Z,101203.47
2018-07-07T05:41:36.957Z,101207.91
2018-07-07T05:44:05.039Z,101202.33
2018-07-07T05:46:33.425Z,101200.72
2018-07-07T05:49:01.637Z,101206.59
2018-07-07T05:51:29.764Z,101201.87
2018-07-07T05:53:57.900Z,101204.70
2018-07-07T05:56:25.963Z,101200.38
2018-07-07T05:58:54.555Z,101202.45
2018-07-07T06:01:22.860Z,101204.75
2018-07-07T06:03:50.931Z,101204.64
2018-07-07T06:06:18.955Z,101210.21
2018-07-07T06:08:47.026Z,101211.92
2018-07-07T06:11:15.062Z,101212.21
2018-07-07T06:13:43.088Z,101211.28
2018-07-07T06:16:11.119Z,101215.04
2018-07-07T06:18:39.187Z,101217.06
2018-07-07T06:21:07.255Z,101209.48
2018-07-07T06:23:35.314Z,101205.05
2018-07-07T06:26:03.365Z,101200.64
2018-07-07T06:28:31.423Z,101202.72
2018-07-07T06:30:59.470Z,101204.09
2018-07-07T06:33:27.863Z,101195.47
2018-07-07T06:35:55.947Z,101204.23
2018-07-07T06:38:23.992Z,101204.09
2018-07-07T06:40:52.033Z,101206.15
2018-07-07T06:43:20.068Z,101210.45
2018-07-07T06:45:48.146Z,101204.20
2018-07-07T06:48:16.171Z,101207.22
2018-07-07T06:50:44.196Z,101207.88
2018-07-07T06:53:12.254Z,101203.73
2018-07-07T06:55:40.304Z,101208.53
2018-07-07T06:58:08.347Z,101196.96
2018-07-07T07:00:36.383Z,101201.72
2018-07-07T07:03:04.435Z,101201.24
2018-07-07T07:05:32.491Z,101204.97
2018-07-07T07:08:00.599Z,101210.52
2018-07-07T07:10:28.657Z,101214.25
2018-07-07T07:12:56.710Z,101208.23
2018-07-07T07:15:24.938Z,101211.75
2018-07-07T07:17:52.994Z,101211.12
2018-07-07T07:20:21.715Z,101212.67
2018-07-07T07:22:49.859Z,101215.53
2018-07-07T07:25:17.884Z,101216.05
2018-07-07T07:27:46.315Z,101217.58
2018-07-07T07:30:14.451Z,101214.48
2018-07-07T07:32:42.606Z,101217.83
2018-07-07T07:35:10.699Z,101217.31
2018-07-07T07:37:38.754Z,101220.01
2018-07-07T07:40:12.504Z,101223.58
2018-07-07T07:42:40.573Z,101219.80
2018-07-07T07:45:08.667Z,101218.59
2018-07-07T07:47:37.068Z,101219.83
2018-07-07T07:50:05.132Z,101213.72
2018-07-07T07:52:33.233Z,101209.20
2018-07-07T07:55:01.334Z,101212.80
2018-07-07T07:57:29.477Z,101213.81
2018-07-07T07:59:59.399Z,101214.68
2018-07-07T08:02:27.816Z,101204.00
2018-07-07T08:04:56.782Z,101202.94
2018-07-07T08:07:24.783Z,101199.81
2018-07-07T08:09:52.865Z,101194.23
2018-07-07T08:12:20.953Z,101204.44
2018-07-07T08:14:49.019Z,101202.33
2018-07-07T08:17:17.182Z,101202.22
2018-07-07T08:19:45.535Z,101201.25
2018-07-07T08:22:13.583Z,101200.42
2018-07-07T08:24:41.673Z,101202.67
2018-07-07T08:27:09.724Z,101203.53
2018-07-07T08:29:37.938Z,101196.32
2018-07-07T08:32:06.410Z,101200.03
2018-07-07T08:34:34.546Z,101203.76
2018-07-07T08:37:02.516Z,101204.27
2018-07-07T08:39:30.584Z,101198.74
2018-07-07T08:41:58.747Z,101200.41
2018-07-07T08:44:26.679Z,101194.72
2018-07-07T08:46:54.739Z,101197.76
2018-07-07T08:49:22.874Z,101198.74
2018-07-07T08:51:50.961Z,101202.92
2018-07-07T08:54:19.007Z,101199.66
2018-07-07T08:56:47.066Z,101199.52
2018-07-07T08:59:15.135Z,101193.30
2018-07-07T09:01:43.164Z,101195.38
2018-07-07T09:04:11.491Z,101198.16
2018-07-07T09:06:39.835Z,101197.66
2018-07-07T09:09:09.167Z,101196.05
2018-07-07T09:11:37.207Z,101203.39
2018-07-07T09:14:05.429Z,101194.03
2018-07-07T09:16:33.816Z,101192.28
2018-07-07T09:19:01.857Z,101199.33
2018-07-07T09:21:29.891Z,101194.71
2018-07-07T09:23:58.172Z,101193.23
2018-07-07T09:26:26.192Z,101189.52
2018-07-07T09:28:54.282Z,101195.86
2018-07-07T09:31:22.941Z,101188.36
2018-07-07T09:33:52.036Z,101194.08
2018-07-07T09:36:20.111Z,101184.78
2018-07-07T09:38:48.164Z,101183.34
2018-07-07T09:41:16.225Z,101189.55
2018-07-07T09:43:44.611Z,101187.58
2018-07-07T09:46:16.619Z,101184.02
2018-07-07T09:48:45.504Z,101180.67
2018-07-07T09:51:14.584Z,101182.23
2018-07-07T09:53:42.628Z,101185.84
2018-07-07T09:56:10.717Z,101183.61
2018-07-07T09:58:38.748Z,101178.63
2018-07-07T10:01:06.832Z,101173.86
2018-07-07T10:03:34.875Z,101175.52
2018-07-07T10:06:02.931Z,101187.03
2018-07-07T10:08:31.291Z,101191.11
2018-07-07T10:10:59.372Z,101180.59
2018-07-07T10:13:27.443Z,101188.16
2018-07-07T10:15:55.503Z,101183.57
2018-07-07T10:18:23.555Z,101177.75
2018-07-07T10:20:51.608Z,101177.15
2018-07-07T10:23:19.752Z,101183.88
2018-07-07T10:25:47.830Z,101181.58
2018-07-07T10:28:16.127Z,101176.77
2018-07-07T10:30:44.175Z,101177.56
2018-07-07T10:33:12.235Z,101169.52
2018-07-07T10:35:40.343Z,101176.25
2018-07-07T10:38:08.411Z,101172.49
2018-07-07T10:40:36.542Z,101181.11
2018-07-07T10:43:04.584Z,101178.09
2018-07-07T10:45:32.718Z,101172.91
2018-07-07T10:48:00.776Z,101176.48
2018-07-07T10:50:28.828Z,101168.36
2018-07-07T10:52:57.030Z,101178.74
2018-07-07T10:55:25.202Z,101173.77
2018-07-07T10:57:53.324Z,101164.91
2018-07-07T11:00:21.464Z,101173.80
2018-07-07T11:02:49.601Z,101171.59
2018-07-07T11:05:17.901Z,101178.41
2018-07-07T11:07:45.948Z,101171.30
2018-07-07T11:10:14.009Z,101166.48
2018-07-07T11:12:42.088Z,101164.98
2018-07-07T11:15:10.191Z,101173.00
2018-07-07T11:17:38.263Z,101171.95
2018-07-07T11:20:06.362Z,101169.45
2018-07-07T11:22:34.596Z,101161.90
2018-07-07T11:25:02.652Z,101162.42
2018-07-07T11:27:30.704Z,101164.07
2018-07-07T11:29:58.764Z,101164.98
2018-07-07T11:32:26.847Z,101166.67
2018-07-07T11:34:54.903Z,101164.02
2018-07-07T11:37:23.984Z,101161.94
2018-07-07T11:39:52.064Z,101171.84
2018-07-07T11:42:20.144Z,101163.63
2018-07-07T11:44:48.223Z,101164.59
2018-07-07T11:47:16.304Z,101169.33
2018-07-07T11:49:44.397Z,101164.67
2018-07-07T11:52:12.867Z,101161.58
2018-07-07T11:54:40.986Z,101153.97
2018-07-07T11:57:09.082Z,101159.13
2018-07-07T11:59:37.137Z,101165.59
2018-07-07T12:02:05.237Z,101154.81
2018-07-07T12:04:33.445Z,101150.35
2018-07-07T12:07:01.481Z,101163.53
2018-07-07T12:09:30.645Z,101150.71
2018-07-07T12:11:58.736Z,101145.14
2018-07-07T12:14:26.856Z,101149.01
2018-07-07T12:16:54.920Z,101144.80
2018-07-07T12:19:23.003Z,101148.86
2018-07-07T12:21:51.149Z,101147.67
2018-07-07T12:24:19.215Z,101144.76
2018-07-07T12:26:47.319Z,101148.44
2018-07-07T12:29:15.840Z,101138.77
2018-07-07T12:31:44.364Z,101145.48
2018-07-07T12:34:12.459Z,101143.88
2018-07-07T12:36:40.620Z,101143.13
2018-07-07T12:39:09.144Z,101146.97
2018-07-07T12:41:37.200Z,101135.63
2018-07-07T12:44:05.281Z,101137.06
2018-07-07T12:46:33.372Z,101143.76
2018-07-07T12:49:01.429Z,101141.78
2018-07-07T12:51:29.501Z,101134.92
2018-07-07T12:53:57.655Z,101137.64
2018-07-07T12:56:26.488Z,101130.77
2018-07-07T12:58:54.523Z,101128.73
2018-07-07T13:01:22.688Z,101126.01
2018-07-07T13:03:50.716Z,101126.77
2018-07-07T13:06:18.792Z,101123.03
2018-07-07T13:08:46.900Z,101113.97
2018-07-07T13:11:14.948Z,101105.83
2018-07-07T13:13:43.027Z,101110.20
2018-07-07T13:16:11.153Z,101115.17
2018-07-07T13:18:39.150Z,101115.94
2018-07-07T13:21:07.198Z,101111.44
2018-07-07T13:23:35.272Z,101114.28
2018-07-07T13:26:03.311Z,101120.17
2018-07-07T13:28:31.967Z,101114.59
2018-07-07T13:31:00.014Z,101112.55
2018-07-07T13:33:28.219Z,101104.20
2018-07-07T13:35:56.677Z,101108.98
2018-07-07T13:38:24.763Z,101111.77
2018-07-07T13:40:52.851Z,101116.98
2018-07-07T13:43:21.717Z,101117.14
2018-07-07T13:45:49.849Z,101124.80
2018-07-07T13:48:17.925Z,101115.99
2018-07-07T13:50:46.024Z,101102.34
2018-07-07T13:53:14.470Z,101109.03
2018-07-07T13:55:42.960Z,101109.20
2018-07-07T13:58:11.038Z,101104.28
2018-07-07T14:00:39.108Z,101099.34
2018-07-07T14:03:07.164Z,101103.42
2018-07-07T14:05:35.235Z,101098.91
2018-07-07T14:08:04.031Z,101103.63
2018-07-07T14:10:34.386Z,101099.09
2018-07-07T14:13:02.588Z,101098.89
2018-07-07T14:15:30.851Z,101095.94
2018-07-07T14:18:00.137Z,101098.14
2018-07-07T14:20:28.257Z,101097.99
2018-07-07T14:22:56.384Z,101091.37
2018-07-07T14:25:27.252Z,101104.37
2018-07-07T14:27:55.574Z,101094.13
2018-07-07T14:30:23.698Z,101092.59
2018-07-07T14:32:52.091Z,101088.47
2018-07-07T14:35:20.337Z,101091.13
2018-07-07T14:37:48.543Z,101090.23
2018-07-07T14:40:16.583Z,101098.23
2018-07-07T14:42:48.673Z,101096.38
2018-07-07T14:45:18.768Z,101090.58
2018-07-07T14:47:48.024Z,101094.14
2018-07-07T14:50:16.534Z,101099.78
2018-07-07T14:52:45.846Z,101099.16
2018-07-07T14:55:15.135Z,101094.67
2018-07-07T14:57:44.132Z,101093.45
2018-07-07T15:00:16.464Z,101103.63
2018-07-07T15:02:47.024Z,101096.09
2018-07-07T15:05:16.277Z,101086.21
2018-07-07T15:07:44.708Z,101090.69
2018-07-07T15:10:15.497Z,101081.98
2018-07-07T15:12:45.138Z,101079.75
2018-07-07T15:15:13.500Z,101087.38
2018-07-07T15:17:42.503Z,101078.02
2018-07-07T15:20:10.561Z,101088.70
2018-07-07T15:22:39.197Z,101088.62
2018-07-07T15:25:07.637Z,101088.14
2018-07-07T15:27:36.091Z,101088.62
2018-07-07T15:30:05.342Z,101076.70
2018-07-07T15:32:33.399Z,101086.73
2018-07-07T15:35:01.448Z,101072.25
2018-07-07T15:37:29.496Z,101068.59
2018-07-07T15:39:58.142Z,101071.31
2018-07-07T15:42:26.231Z,101068.98
2018-07-07T15:44:54.284Z,101068.56
2018-07-07T15:47:22.420Z,101070.25
2018-07-07T15:49:50.488Z,101069.98
2018-07-07T15:52:19.058Z,101075.23
2018-07-07T15:54:47.485Z,101062.50
2018-07-07T15:57:15.710Z,101053.79
2018-07-07T15:59:44.100Z,101065.70
2018-07-07T16:02:12.719Z,101060.71
2018-07-07T16:04:41.046Z,101054.30
2018-07-07T16:07:09.168Z,101059.33
2018-07-07T16:09:37.791Z,101046.90
2018-07-07T16:12:07.973Z,101047.59
2018-07-07T16:14:36.211Z,101049.94
2018-07-07T16:17:04.672Z,101043.63
2018-07-07T16:19:32.732Z,101044.26
2018-07-07T16:22:01.447Z,101037.92
2018-07-07T16:24:29.859Z,101046.16
2018-07-07T16:26:57.918Z,101049.88
2018-07-07T16:29:26.103Z,101061.16
2018-07-07T16:31:55.420Z,101052.28
2018-07-07T16:34:23.448Z,101052.22
2018-07-07T16:36:51.996Z,101050.30
2018-07-07T16:39:20.448Z,101057.66
2018-07-07T16:41:48.731Z,101049.14
2018-07-07T16:44:16.845Z,101052.48
2018-07-07T16:46:45.075Z,101056.33
2018-07-07T16:49:15.782Z,101053.75
2018-07-07T16:51:44.108Z,101059.76
2018-07-07T16:54:12.629Z,101054.77
2018-07-07T16:56:40.952Z,101057.39
2018-07-07T16:59:09.012Z,101056.21
2018-07-07T17:01:37.446Z,101046.85
2018-07-07T17:04:05.959Z,101049.71
2018-07-07T17:06:34.127Z,101055.98
2018-07-07T17:09:02.241Z,101052.92
2018-07-07T17:11:30.327Z,101056.27
2018-07-07T17:13:59.437Z,101053.27
2018-07-07T17:16:29.616Z,101048.97
2018-07-07T17:19:00.425Z,101049.52
2018-07-07T17:21:28.994Z,101052.29
2018-07-07T17:23:57.434Z,101051.48
2018-07-07T17:26:25.561Z,101056.68
2018-07-07T17:28:57.199Z,101050.08
2018-07-07T17:31:25.452Z,101051.60
2018-07-07T17:33:54.358Z,101063.30
2018-07-07T17:36:22.435Z,101046.56
2018-07-07T17:38:50.863Z,101050.79
2018-07-07T17:41:19.848Z,101060.65
2018-07-07T17:43:49.465Z,101052.34
2018-07-07T17:46:18.671Z,101046.08
2018-07-07T17:48:46.746Z,101056.34
2018-07-07T17:51:14.947Z,101062.50
2018-07-07T17:53:42.991Z,101058.57
2018-07-07T17:56:11.036Z,101062.55
2018-07-07T17:58:39.939Z,101063.74
2018-07-07T18:01:08.028Z,101068.41
2018-07-07T18:03:36.923Z,101072.91
2018-07-07T18:06:05.275Z,101078.40
2018-07-07T18:08:33.464Z,101082.95
2018-07-07T18:11:01.532Z,101084.34
2018-07-07T18:13:29.567Z,101078.11
2018-07-07T18:15:57.612Z,101079.05
2018-07-07T18:18:25.695Z,101084.09
2018-07-07T18:20:53.995Z,101081.86
2018-07-07T18:23:22.060Z,101085.50
2018-07-07T18:25:50.263Z,101082.56
2018-07-07T18:28:18.331Z,101088.84
2018-07-07T18:30:46.783Z,101083.72
2018-07-07T18:33:14.883Z,101080.94
2018-07-07T18:35:42.960Z,101082.71
2018-07-07T18:38:11.076Z,101084.44
2018-07-07T18:40:39.107Z,101089.89
2018-07-07T18:43:07.352Z,101088.78
2018-07-07T18:45:35.502Z,101094.86
2018-07-07T18:48:03.584Z,101094.66
2018-07-07T18:50:31.647Z,101095.08
2018-07-07T18:52:59.725Z,101101.37
2018-07-07T18:55:28.737Z,101098.58
2018-07-07T18:57:57.165Z,101095.13
2018-07-07T19:00:25.765Z,101097.05
2018-07-07T19:02:54.573Z,101100.80
2018-07-07T19:05:22.713Z,101098.83
2018-07-07T19:07:50.764Z,101100.45
2018-07-07T19:10:19.013Z,101101.07
2018-07-07T19:12:47.071Z,101097.11
2018-07-07T19:15:20.927Z,101101.75
2018-07-07T19:17:49.579Z,101100.58
2018-07-07T19:20:23.164Z,101099.24
2018-07-07T19:22:57.278Z,101099.67
2018-07-07T19:25:31.091Z,101097.89
2018-07-07T19:27:59.195Z,101100.71
2018-07-07T19:30:27.758Z,101101.14
2018-07-07T19:33:01.432Z,101101.57
2018-07-07T19:35:34.793Z,101104.98
2018-07-07T19:38:03.711Z,101103.61
2018-07-07T19:40:31.811Z,101106.62
2018-07-07T19:43:00.111Z,101110.23
2018-07-07T19:45:28.267Z,101115.21
2018-07-07T19:47:56.411Z,101118.43
2018-07-07T19:50:24.511Z,101121.85
2018-07-07T19:52:52.813Z,101119.85
2018-07-07T19:55:21.235Z,101123.66
2018-07-07T19:57:49.289Z,101120.45
2018-07-07T20:00:17.332Z,101131.25
2018-07-07T20:02:45.464Z,101123.23
2018-07-07T20:05:13.591Z,101120.05
2018-07-07T20:07:41.668Z,101127.63
2018-07-07T20:10:09.721Z,101125.02
2018-07-07T20:12:38.075Z,101127.36
2018-07-07T20:15:06.252Z,101128.94
2018-07-07T20:17:45.663Z,101130.95
2018-07-07T20:20:34.137Z,101124.94
2018-07-07T20:23:03.473Z,101127.70
2018-07-07T20:25:31.519Z,101140.84
2018-07-07T20:28:05.014Z,101139.61
2018-07-07T20:30:33.468Z,101139.57
2018-07-07T20:33:01.528Z,101141.37
2018-07-07T20:35:29.615Z,101149.55
2018-07-07T20:37:57.653Z,101154.33
2018-07-07T20:40:25.715Z,101148.67
2018-07-07T20:42:53.787Z,101151.02
2018-07-07T20:45:21.819Z,101149.00
2018-07-07T20:47:49.863Z,101149.00
2018-07-07T20:50:17.922Z,101150.09
2018-07-07T20:52:45.988Z,101154.05
2018-07-07T20:55:14.064Z,101152.41
2018-07-07T20:57:42.268Z,101151.72
2018-07-07T21:00:10.335Z,101151.09
2018-07-07T21:02:38.381Z,101152.61
2018-07-07T21:05:06.561Z,101155.58
2018-07-07T21:07:35.336Z,101155.18
2018-07-07T21:10:03.450Z,101153.45
2018-07-07T21:12:31.731Z,101158.55
2018-07-07T21:14:59.881Z,101163.09
2018-07-07T21:17:27.995Z,101171.47
2018-07-07T21:19:56.049Z,101165.80
2018-07-07T21:22:24.099Z,101163.13
2018-07-07T21:24:53.191Z,101155.95
2018-07-07T21:27:21.265Z,101158.11
2018-07-07T21:29:49.313Z,101157.49
2018-07-07T21:32:17.537Z,101161.80
2018-07-07T21:34:45.588Z,101164.70
2018-07-07T21:37:14.027Z,101167.27
2018-07-07T21:39:42.211Z,101161.06
2018-07-07T21:42:10.356Z,101165.37
2018-07-07T21:44:38.466Z,101164.66
2018-07-07T21:47:07.238Z,101165.20
2018-07-07T21:49:35.315Z,101164.34
2018-07-07T21:52:03.667Z,101166.49
2018-07-07T21:54:31.722Z,101170.16
2018-07-07T21:56:59.763Z,101172.75
2018-07-07T21:59:27.861Z,101177.12
2018-07-07T22:02:01.307Z,101182.70
2018-07-07T22:04:35.368Z,101193.31
2018-07-07T22:09:12.044Z,101185.53
2018-07-07T22:11:40.112Z,101187.64
2018-07-07T22:14:08.192Z,101183.66
2018-07-07T22:16:36.312Z,101189.22
2018-07-07T22:19:04.380Z,101189.22
2018-07-07T22:21:45.352Z,101182.81
2018-07-07T22:24:13.896Z,101184.38
2018-07-07T22:26:42.675Z,101186.34
2018-07-07T22:29:10.816Z,101184.47
2018-07-07T22:31:39.730Z,101188.36
2018-07-07T22:34:08.312Z,101193.22
2018-07-07T22:36:36.611Z,101199.43
2018-07-07T22:39:05.136Z,101196.73
2018-07-07T22:41:54.100Z,101191.91
2018-07-07T22:44:22.698Z,101190.55
2018-07-07T22:46:51.090Z,101189.09
2018-07-07T22:49:19.404Z,101186.27
2018-07-07T22:51:48.054Z,101183.58
2018-07-07T22:54:16.531Z,101184.56
2018-07-07T22:56:44.587Z,101182.52
2018-07-07T22:59:13.392Z,101183.80
2018-07-07T23:01:41.523Z,101175.39
2018-07-07T23:04:09.901Z,101181.45
2018-07-07T23:06:39.712Z,101176.78
2018-07-07T23:09:09.392Z,101179.72
2018-07-07T23:11:38.188Z,101182.27
2018-07-07T23:14:06.660Z,101181.49
2018-07-07T23:16:42.161Z,101178.71
2018-07-07T23:19:11.397Z,101176.86
2018-07-07T23:21:40.091Z,101172.62
2018-07-07T23:24:08.280Z,101188.72
2018-07-07T23:26:36.433Z,101185.73
2018-07-07T23:29:05.219Z,101190.41
2018-07-07T23:31:34.128Z,101181.42
2018-07-07T23:34:03.432Z,101182.58
2018-07-07T23:36:31.707Z,101183.39
2018-07-07T23:38:59.844Z,101180.76
2018-07-07T23:41:27.972Z,101029.70
2018-07-07T23:43:56.020Z,101182.22
2018-07-07T23:46:24.084Z,101180.75
2018-07-07T23:48:52.185Z,101180.68
2018-07-07T23:51:20.325Z,101182.90
2018-07-07T23:53:48.431Z,101176.52
2018-07-07T23:56:16.475Z,101183.89
2018-07-07T23:58:44.565Z,101176.95
